sensor_id;sensor_type;location;lat;lon;timestamp;pressure;altitude;pressure_sealevel;temperature;humidity
76406;BME280;65234;50.044;19.258;2022-12-07T00:00:04;98302.72;;;1.30;nan
76406;BME280;65234;50.044;19.258;2022-12-07T00:02:49;98300.34;;;1.29;nan
76406;BME280;65234;50.044;19.258;2022-12-07T00:05:15;98292.25;;;1.32;nan
76406;BME280;65234;50.044;19.258;2022-12-07T00:07:41;98292.50;;;1.27;nan
76406;BME280;65234;50.044;19.258;2022-12-07T00:10:07;98294.19;;;1.32;nan
76406;BME280;65234;50.044;19.258;2022-12-07T00:12:33;98290.94;;;1.26;nan
76406;BME280;65234;50.044;19.258;2022-12-07T00:15:00;98289.44;;;1.29;nan
76406;BME280;65234;50.044;19.258;2022-12-07T00:17:25;98288.66;;;1.28;nan
76406;BME280;65234;50.044;19.258;2022-12-07T00:19:51;98286.63;;;1.25;nan
76406;BME280;65234;50.044;19.258;2022-12-07T00:22:17;98283.19;;;1.28;nan
76406;BME280;65234;50.044;19.258;2022-12-07T00:24:43;98282.06;;;1.29;nan
76406;BME280;65234;50.044;19.258;2022-12-07T00:27:08;98285.56;;;1.30;nan
76406;BME280;65234;50.044;19.258;2022-12-07T00:29:34;98285.47;;;1.26;nan
76406;BME280;65234;50.044;19.258;2022-12-07T00:32:01;98285.56;;;1.30;nan
76406;BME280;65234;50.044;19.258;2022-12-07T00:34:27;98283.63;;;1.30;nan
76406;BME280;65234;50.044;19.258;2022-12-07T00:36:52;98276.13;;;1.27;nan
76406;BME280;65234;50.044;19.258;2022-12-07T00:39:18;98280.88;;;1.30;nan
76406;BME280;65234;50.044;19.258;2022-12-07T00:41:44;98278.63;;;1.32;nan
76406;BME280;65234;50.044;19.258;2022-12-07T00:44:10;98269.97;;;1.30;nan
76406;BME280;65234;50.044;19.258;2022-12-07T00:46:35;98266.56;;;1.33;nan
76406;BME280;65234;50.044;19.258;2022-12-07T00:49:02;98264.28;;;1.35;nan
76406;BME280;65234;50.044;19.258;2022-12-07T00:51:28;98269.31;;;1.33;nan
76406;BME280;65234;50.044;19.258;2022-12-07T00:53:54;98271.31;;;1.36;nan
76406;BME280;65234;50.044;19.258;2022-12-07T00:56:22;98275.66;;;1.37;nan
76406;BME280;65234;50.044;19.258;2022-12-07T00:58:52;98268.25;;;1.38;nan
76406;BME280;65234;50.044;19.258;2022-12-07T01:01:18;98273.34;;;1.39;nan
76406;BME280;65234;50.044;19.258;2022-12-07T01:03:44;98267.97;;;1.43;nan
76406;BME280;65234;50.044;19.258;2022-12-07T01:06:13;98262.63;;;1.47;nan
76406;BME280;65234;50.044;19.258;2022-12-07T01:08:39;98265.00;;;1.48;nan
76406;BME280;65234;50.044;19.258;2022-12-07T01:11:07;98262.63;;;1.47;nan
76406;BME280;65234;50.044;19.258;2022-12-07T01:13:34;98255.22;;;1.47;nan
76406;BME280;65234;50.044;19.258;2022-12-07T01:16:02;98253.28;;;1.48;nan
76406;BME280;65234;50.044;19.258;2022-12-07T01:18:30;98252.59;;;1.51;nan
76406;BME280;65234;50.044;19.258;2022-12-07T01:21:00;98256.47;;;1.50;nan
76406;BME280;65234;50.044;19.258;2022-12-07T01:23:29;98250.66;;;1.51;nan
76406;BME280;65234;50.044;19.258;2022-12-07T01:25:55;98246.69;;;1.49;nan
76406;BME280;65234;50.044;19.258;2022-12-07T01:28:21;98248.00;;;1.55;nan
76406;BME280;65234;50.044;19.258;2022-12-07T01:30:54;98237.81;;;1.52;nan
76406;BME280;65234;50.044;19.258;2022-12-07T01:33:20;98246.63;;;1.61;nan
76406;BME280;65234;50.044;19.258;2022-12-07T01:35:46;98240.28;;;1.57;nan
76406;BME280;65234;50.044;19.258;2022-12-07T01:38:12;98236.41;;;1.58;nan
76406;BME280;65234;50.044;19.258;2022-12-07T01:40:39;98242.63;;;1.58;nan
76406;BME280;65234;50.044;19.258;2022-12-07T01:43:09;98245.75;;;1.57;nan
76406;BME280;65234;50.044;19.258;2022-12-07T01:45:40;98242.22;;;1.56;nan
76406;BME280;65234;50.044;19.258;2022-12-07T01:48:08;98247.41;;;1.61;nan
76406;BME280;65234;50.044;19.258;2022-12-07T01:50:36;98238.44;;;1.61;nan
76406;BME280;65234;50.044;19.258;2022-12-07T01:53:06;98241.25;;;1.64;nan
76406;BME280;65234;50.044;19.258;2022-12-07T01:55:36;98237.00;;;1.67;nan
76406;BME280;65234;50.044;19.258;2022-12-07T01:58:04;98237.09;;;1.70;nan
76406;BME280;65234;50.044;19.258;2022-12-07T02:00:30;98237.56;;;1.72;nan
76406;BME280;65234;50.044;19.258;2022-12-07T02:03:03;98239.16;;;1.73;nan
76406;BME280;65234;50.044;19.258;2022-12-07T02:05:30;98241.16;;;1.76;nan
76406;BME280;65234;50.044;19.258;2022-12-07T02:07:57;98230.25;;;1.76;nan
76406;BME280;65234;50.044;19.258;2022-12-07T02:10:25;98232.44;;;1.86;nan
76406;BME280;65234;50.044;19.258;2022-12-07T02:12:54;98234.66;;;1.81;nan
76406;BME280;65234;50.044;19.258;2022-12-07T02:15:26;98226.97;;;1.86;nan
76406;BME280;65234;50.044;19.258;2022-12-07T02:18:00;98236.75;;;1.87;nan
76406;BME280;65234;50.044;19.258;2022-12-07T02:20:33;98235.53;;;1.85;nan
76406;BME280;65234;50.044;19.258;2022-12-07T02:26:54;98235.06;;;1.99;nan
76406;BME280;65234;50.044;19.258;2022-12-07T02:29:25;98228.00;;;1.98;nan
76406;BME280;65234;50.044;19.258;2022-12-07T02:31:59;98225.75;;;2.00;nan
76406;BME280;65234;50.044;19.258;2022-12-07T02:34:34;98229.59;;;1.99;nan
76406;BME280;65234;50.044;19.258;2022-12-07T02:37:09;98218.59;;;1.95;nan
76406;BME280;65234;50.044;19.258;2022-12-07T02:39:41;98223.88;;;2.04;nan
76406;BME280;65234;50.044;19.258;2022-12-07T02:42:14;98229.69;;;2.02;nan
76406;BME280;65234;50.044;19.258;2022-12-07T02:44:43;98223.44;;;2.02;nan
76406;BME280;65234;50.044;19.258;2022-12-07T02:47:13;98224.69;;;2.04;nan
76406;BME280;65234;50.044;19.258;2022-12-07T02:49:40;98222.81;;;2.08;nan
76406;BME280;65234;50.044;19.258;2022-12-07T02:52:06;98225.56;;;2.08;nan
76406;BME280;65234;50.044;19.258;2022-12-07T02:54:32;98222.38;;;2.06;nan
76406;BME280;65234;50.044;19.258;2022-12-07T02:57:02;98219.72;;;2.10;nan
76406;BME280;65234;50.044;19.258;2022-12-07T02:59:39;98224.91;;;2.15;nan
76406;BME280;65234;50.044;19.258;2022-12-07T03:02:18;98221.38;;;2.14;nan
76406;BME280;65234;50.044;19.258;2022-12-07T03:04:53;98228.44;;;2.15;nan
76406;BME280;65234;50.044;19.258;2022-12-07T03:07:32;98228.38;;;2.12;nan
76406;BME280;65234;50.044;19.258;2022-12-07T03:10:02;98221.75;;;2.13;nan
76406;BME280;65234;50.044;19.258;2022-12-07T03:12:32;98220.59;;;2.14;nan
76406;BME280;65234;50.044;19.258;2022-12-07T03:15:06;98225.00;;;2.18;nan
76406;BME280;65234;50.044;19.258;2022-12-07T03:17:38;98214.38;;;2.13;nan
76406;BME280;65234;50.044;19.258;2022-12-07T03:20:07;98210.91;;;2.16;nan
76406;BME280;65234;50.044;19.258;2022-12-07T03:22:35;98213.66;;;2.16;nan
76406;BME280;65234;50.044;19.258;2022-12-07T03:25:06;98207.00;;;2.17;nan
76406;BME280;65234;50.044;19.258;2022-12-07T03:27:37;98207.00;;;2.17;nan
76406;BME280;65234;50.044;19.258;2022-12-07T03:30:07;98208.19;;;2.16;nan
76406;BME280;65234;50.044;19.258;2022-12-07T03:32:39;98199.69;;;2.21;nan
76406;BME280;65234;50.044;19.258;2022-12-07T03:35:10;98200.41;;;2.18;nan
76406;BME280;65234;50.044;19.258;2022-12-07T03:37:41;98201.72;;;2.24;nan
76406;BME280;65234;50.044;19.258;2022-12-07T03:40:13;98202.00;;;2.19;nan
76406;BME280;65234;50.044;19.258;2022-12-07T03:42:42;98198.91;;;2.21;nan
76406;BME280;65234;50.044;19.258;2022-12-07T03:45:08;98200.88;;;2.20;nan
76406;BME280;65234;50.044;19.258;2022-12-07T03:47:43;98201.13;;;2.15;nan
76406;BME280;65234;50.044;19.258;2022-12-07T03:50:14;98205.88;;;2.18;nan
76406;BME280;65234;50.044;19.258;2022-12-07T03:52:45;98209.31;;;2.15;nan
76406;BME280;65234;50.044;19.258;2022-12-07T03:55:17;98200.25;;;2.11;nan
76406;BME280;65234;50.044;19.258;2022-12-07T03:57:45;98197.19;;;2.13;nan
76406;BME280;65234;50.044;19.258;2022-12-07T04:00:13;98200.97;;;2.08;nan
76406;BME280;65234;50.044;19.258;2022-12-07T04:02:41;98198.97;;;2.05;nan
76406;BME280;65234;50.044;19.258;2022-12-07T04:05:08;98199.31;;;2.04;nan
76406;BME280;65234;50.044;19.258;2022-12-07T04:07:34;98200.53;;;2.06;nan
76406;BME280;65234;50.044;19.258;2022-12-07T04:09:59;98194.25;;;2.06;nan
76406;BME280;65234;50.044;19.258;2022-12-07T04:12:25;98191.75;;;1.97;nan
76406;BME280;65234;50.044;19.258;2022-12-07T04:14:51;98194.47;;;1.97;nan
76406;BME280;65234;50.044;19.258;2022-12-07T04:17:17;98197.22;;;1.97;nan
76406;BME280;65234;50.044;19.258;2022-12-07T04:19:44;98195.63;;;1.96;nan
76406;BME280;65234;50.044;19.258;2022-12-07T04:22:09;98203.09;;;1.99;nan
76406;BME280;65234;50.044;19.258;2022-12-07T04:24:35;98200.63;;;1.94;nan
76406;BME280;65234;50.044;19.258;2022-12-07T04:27:01;98206.47;;;1.93;nan
76406;BME280;65234;50.044;19.258;2022-12-07T04:29:27;98203.00;;;1.96;nan
76406;BME280;65234;50.044;19.258;2022-12-07T04:31:53;98208.41;;;1.92;nan
76406;BME280;65234;50.044;19.258;2022-12-07T04:34:19;98204.44;;;1.89;nan
76406;BME280;65234;50.044;19.258;2022-12-07T04:36:46;98205.94;;;1.87;nan
76406;BME280;65234;50.044;19.258;2022-12-07T04:39:18;98211.31;;;1.83;nan
76406;BME280;65234;50.044;19.258;2022-12-07T04:41:44;98214.50;;;1.70;nan
76406;BME280;65234;50.044;19.258;2022-12-07T04:44:10;98222.41;;;1.59;nan
76406;BME280;65234;50.044;19.258;2022-12-07T04:46:37;98217.56;;;1.53;nan
76406;BME280;65234;50.044;19.258;2022-12-07T04:49:03;98223.97;;;1.45;nan
76406;BME280;65234;50.044;19.258;2022-12-07T04:51:29;98220.72;;;1.39;nan
76406;BME280;65234;50.044;19.258;2022-12-07T04:53:56;98224.84;;;1.33;nan
76406;BME280;65234;50.044;19.258;2022-12-07T04:56:22;98226.78;;;1.32;nan
76406;BME280;65234;50.044;19.258;2022-12-07T04:58:49;98216.91;;;1.28;nan
76406;BME280;65234;50.044;19.258;2022-12-07T05:01:16;98222.38;;;1.28;nan
76406;BME280;65234;50.044;19.258;2022-12-07T05:03:42;98224.56;;;1.22;nan
76406;BME280;65234;50.044;19.258;2022-12-07T05:06:08;98223.69;;;1.18;nan
76406;BME280;65234;50.044;19.258;2022-12-07T05:08:34;98224.38;;;1.15;nan
76406;BME280;65234;50.044;19.258;2022-12-07T05:11:02;98220.97;;;1.18;nan
76406;BME280;65234;50.044;19.258;2022-12-07T05:13:28;98223.22;;;1.16;nan
76406;BME280;65234;50.044;19.258;2022-12-07T05:15:54;98226.66;;;1.13;nan
76406;BME280;65234;50.044;19.258;2022-12-07T05:18:20;98225.97;;;1.16;nan
76406;BME280;65234;50.044;19.258;2022-12-07T05:20:51;98229.72;;;1.12;nan
76406;BME280;65234;50.044;19.258;2022-12-07T05:23:17;98221.22;;;1.13;nan
76406;BME280;65234;50.044;19.258;2022-12-07T05:25:43;98223.47;;;1.11;nan
76406;BME280;65234;50.044;19.258;2022-12-07T05:28:11;98226.56;;;1.10;nan
76406;BME280;65234;50.044;19.258;2022-12-07T05:30:36;98236.44;;;1.14;nan
76406;BME280;65234;50.044;19.258;2022-12-07T05:33:03;98225.06;;;1.12;nan
76406;BME280;65234;50.044;19.258;2022-12-07T05:35:28;98231.22;;;1.09;nan
76406;BME280;65234;50.044;19.258;2022-12-07T05:37:54;98231.66;;;1.11;nan
76406;BME280;65234;50.044;19.258;2022-12-07T05:40:20;98232.03;;;1.10;nan
76406;BME280;65234;50.044;19.258;2022-12-07T05:42:46;98229.63;;;1.08;nan
76406;BME280;65234;50.044;19.258;2022-12-07T05:45:13;98235.88;;;1.09;nan
76406;BME280;65234;50.044;19.258;2022-12-07T05:47:38;98235.69;;;1.02;nan
76406;BME280;65234;50.044;19.258;2022-12-07T05:50:05;98227.94;;;1.04;nan
76406;BME280;65234;50.044;19.258;2022-12-07T05:52:31;98237.28;;;1.03;nan
76406;BME280;65234;50.044;19.258;2022-12-07T05:54:57;98226.25;;;0.99;nan
76406;BME280;65234;50.044;19.258;2022-12-07T05:57:23;98227.94;;;1.04;nan
76406;BME280;65234;50.044;19.258;2022-12-07T05:59:49;98228.03;;;1.07;nan
76406;BME280;65234;50.044;19.258;2022-12-07T06:02:16;98225.78;;;1.09;nan
76406;BME280;65234;50.044;19.258;2022-12-07T06:04:43;98235.88;;;1.09;nan
76406;BME280;65234;50.044;19.258;2022-12-07T06:07:10;98228.84;;;1.08;nan
76406;BME280;65234;50.044;19.258;2022-12-07T06:09:37;98231.56;;;1.08;nan
76406;BME280;65234;50.044;19.258;2022-12-07T06:12:05;98229.72;;;1.12;nan
76406;BME280;65234;50.044;19.258;2022-12-07T06:14:31;98236.78;;;1.13;nan
76406;BME280;65234;50.044;19.258;2022-12-07T06:16:57;98232.13;;;1.13;nan
76406;BME280;65234;50.044;19.258;2022-12-07T06:19:24;98235.88;;;1.09;nan
76406;BME280;65234;50.044;19.258;2022-12-07T06:21:50;98233.50;;;1.07;nan
76406;BME280;65234;50.044;19.258;2022-12-07T06:24:16;98233.84;;;1.06;nan
76406;BME280;65234;50.044;19.258;2022-12-07T06:26:42;98237.16;;;0.99;nan
76406;BME280;65234;50.044;19.258;2022-12-07T06:29:08;98240.16;;;0.94;nan
76406;BME280;65234;50.044;19.258;2022-12-07T06:31:35;98237.44;;;0.94;nan
76406;BME280;65234;50.044;19.258;2022-12-07T06:34:02;98242.44;;;0.92;nan
76406;BME280;65234;50.044;19.258;2022-12-07T06:36:30;98241.72;;;0.95;nan
76406;BME280;65234;50.044;19.258;2022-12-07T06:38:56;98248.06;;;0.99;nan
76406;BME280;65234;50.044;19.258;2022-12-07T06:41:22;98246.41;;;0.94;nan
76406;BME280;65234;50.044;19.258;2022-12-07T06:43:48;98253.00;;;0.93;nan
76406;BME280;65234;50.044;19.258;2022-12-07T06:46:15;98243.31;;;0.96;nan
76406;BME280;65234;50.044;19.258;2022-12-07T06:48:41;98251.88;;;0.94;nan
76406;BME280;65234;50.044;19.258;2022-12-07T06:51:06;98250.97;;;0.90;nan
76406;BME280;65234;50.044;19.258;2022-12-07T06:53:34;98258.00;;;0.91;nan
76406;BME280;65234;50.044;19.258;2022-12-07T06:56:01;98261.88;;;0.90;nan
76406;BME280;65234;50.044;19.258;2022-12-07T06:58:27;98267.19;;;0.87;nan
76406;BME280;65234;50.044;19.258;2022-12-07T07:00:53;98268.94;;;0.79;nan
76406;BME280;65234;50.044;19.258;2022-12-07T07:03:19;98271.56;;;0.76;nan
76406;BME280;65234;50.044;19.258;2022-12-07T07:05:45;98271.47;;;0.72;nan
76406;BME280;65234;50.044;19.258;2022-12-07T07:08:11;98271.13;;;0.74;nan
76406;BME280;65234;50.044;19.258;2022-12-07T07:10:39;98261.25;;;0.69;nan
76406;BME280;65234;50.044;19.258;2022-12-07T07:13:04;98261.59;;;0.68;nan
76406;BME280;65234;50.044;19.258;2022-12-07T07:15:31;98260.34;;;0.65;nan
76406;BME280;65234;50.044;19.258;2022-12-07T07:17:57;98258.44;;;0.66;nan
76406;BME280;65234;50.044;19.258;2022-12-07T07:20:22;98268.28;;;0.70;nan
76406;BME280;65234;50.044;19.258;2022-12-07T07:22:48;98261.94;;;0.66;nan
76406;BME280;65234;50.044;19.258;2022-12-07T07:25:14;98261.25;;;0.69;nan
76406;BME280;65234;50.044;19.258;2022-12-07T07:27:41;98263.03;;;0.77;nan
76406;BME280;65234;50.044;19.258;2022-12-07T07:30:08;98259.97;;;0.79;nan
76406;BME280;65234;50.044;19.258;2022-12-07T07:32:34;98260.09;;;0.82;nan
76406;BME280;65234;50.044;19.258;2022-12-07T07:35:00;98271.09;;;0.86;nan
76406;BME280;65234;50.044;19.258;2022-12-07T07:37:26;98260.97;;;0.86;nan
76406;BME280;65234;50.044;19.258;2022-12-07T07:39:52;98264.47;;;0.87;nan
76406;BME280;65234;50.044;19.258;2022-12-07T07:42:17;98279.13;;;0.94;nan
76406;BME280;65234;50.044;19.258;2022-12-07T07:44:44;98271.72;;;0.95;nan
76406;BME280;65234;50.044;19.258;2022-12-07T07:47:10;98269.88;;;0.99;nan
76406;BME280;65234;50.044;19.258;2022-12-07T07:49:36;98273.97;;;1.05;nan
76406;BME280;65234;50.044;19.258;2022-12-07T07:52:01;98271.78;;;1.11;nan
76406;BME280;65234;50.044;19.258;2022-12-07T07:54:27;98276.47;;;1.10;nan
76406;BME280;65234;50.044;19.258;2022-12-07T07:56:53;98268.72;;;1.12;nan
76406;BME280;65234;50.044;19.258;2022-12-07T07:59:19;98276.88;;;1.12;nan
76406;BME280;65234;50.044;19.258;2022-12-07T08:01:45;98271.19;;;1.17;nan
76406;BME280;65234;50.044;19.258;2022-12-07T08:04:11;98270.72;;;1.15;nan
76406;BME280;65234;50.044;19.258;2022-12-07T08:06:37;98264.94;;;1.17;nan
76406;BME280;65234;50.044;19.258;2022-12-07T08:09:03;98282.28;;;1.24;nan
76406;BME280;65234;50.044;19.258;2022-12-07T08:11:28;98281.50;;;1.24;nan
76406;BME280;65234;50.044;19.258;2022-12-07T08:13:54;98281.59;;;1.27;nan
76406;BME280;65234;50.044;19.258;2022-12-07T08:16:20;98275.00;;;1.28;nan
76406;BME280;65234;50.044;19.258;2022-12-07T08:18:47;98274.66;;;1.30;nan
76406;BME280;65234;50.044;19.258;2022-12-07T08:21:14;98279.84;;;1.35;nan
76406;BME280;65234;50.044;19.258;2022-12-07T08:23:40;98280.31;;;1.37;nan
76406;BME280;65234;50.044;19.258;2022-12-07T08:26:08;98285.84;;;1.40;nan
76406;BME280;65234;50.044;19.258;2022-12-07T08:28:35;98289.00;;;1.42;nan
76406;BME280;65234;50.044;19.258;2022-12-07T08:31:02;98285.84;;;1.40;nan
76406;BME280;65234;50.044;19.258;2022-12-07T08:33:28;98294.22;;;1.48;nan
76406;BME280;65234;50.044;19.258;2022-12-07T08:36:00;98299.59;;;1.44;nan
76406;BME280;65234;50.044;19.258;2022-12-07T08:38:26;98301.72;;;1.51;nan
76406;BME280;65234;50.044;19.258;2022-12-07T08:40:53;98298.09;;;1.47;nan
76406;BME280;65234;50.044;19.258;2022-12-07T08:43:19;98301.72;;;1.51;nan
76406;BME280;65234;50.044;19.258;2022-12-07T08:45:45;98295.13;;;1.52;nan
76406;BME280;65234;50.044;19.258;2022-12-07T08:48:12;98300.84;;;1.62;nan
76406;BME280;65234;50.044;19.258;2022-12-07T08:50:39;98294.16;;;1.60;nan
76406;BME280;65234;50.044;19.258;2022-12-07T08:53:06;98296.66;;;1.65;nan
76406;BME280;65234;50.044;19.258;2022-12-07T08:55:33;98299.91;;;1.70;nan
76406;BME280;65234;50.044;19.258;2022-12-07T08:57:59;98302.72;;;1.74;nan
76406;BME280;65234;50.044;19.258;2022-12-07T09:00:26;98293.22;;;1.83;nan
76406;BME280;65234;50.044;19.258;2022-12-07T09:02:53;98294.09;;;1.87;nan
76406;BME280;65234;50.044;19.258;2022-12-07T09:05:19;98299.91;;;1.86;nan
76406;BME280;65234;50.044;19.258;2022-12-07T09:07:46;98298.06;;;1.90;nan
76406;BME280;65234;50.044;19.258;2022-12-07T09:10:15;98296.66;;;1.96;nan
76406;BME280;65234;50.044;19.258;2022-12-07T09:12:41;98299.50;;;2.00;nan
76406;BME280;65234;50.044;19.258;2022-12-07T09:15:07;98286.47;;;1.93;nan
76406;BME280;65234;50.044;19.258;2022-12-07T09:17:34;98286.63;;;2.00;nan
76406;BME280;65234;50.044;19.258;2022-12-07T09:19:59;98293.69;;;2.01;nan
76406;BME280;65234;50.044;19.258;2022-12-07T09:22:28;98281.97;;;2.01;nan
76406;BME280;65234;50.044;19.258;2022-12-07T09:24:54;98286.63;;;2.00;nan
76406;BME280;65234;50.044;19.258;2022-12-07T09:27:21;98292.50;;;2.02;nan
76406;BME280;65234;50.044;19.258;2022-12-07T09:29:46;98277.72;;;2.03;nan
76406;BME280;65234;50.044;19.258;2022-12-07T09:32:12;98281.66;;;2.06;nan
76406;BME280;65234;50.044;19.258;2022-12-07T09:34:38;98283.09;;;2.15;nan
76406;BME280;65234;50.044;19.258;2022-12-07T09:37:04;98281.50;;;2.14;nan
76406;BME280;65234;50.044;19.258;2022-12-07T09:39:29;98284.69;;;2.16;nan
76406;BME280;65234;50.044;19.258;2022-12-07T09:41:57;98277.47;;;2.08;nan
76406;BME280;65234;50.044;19.258;2022-12-07T09:44:25;98265.41;;;2.09;nan
76406;BME280;65234;50.044;19.258;2022-12-07T09:46:52;98277.97;;;2.14;nan
76406;BME280;65234;50.044;19.258;2022-12-07T09:49:19;98268.28;;;2.16;nan
76406;BME280;65234;50.044;19.258;2022-12-07T09:51:46;98264.56;;;2.24;nan
76406;BME280;65234;50.044;19.258;2022-12-07T09:54:14;98261.38;;;2.22;nan
76406;BME280;65234;50.044;19.258;2022-12-07T09:56:40;98260.69;;;2.25;nan
76406;BME280;65234;50.044;19.258;2022-12-07T09:59:05;98261.06;;;2.24;nan
76406;BME280;65234;50.044;19.258;2022-12-07T10:01:33;98256.38;;;2.24;nan
76406;BME280;65234;50.044;19.258;2022-12-07T10:04:05;98253.66;;;2.24;nan
76406;BME280;65234;50.044;19.258;2022-12-07T10:06:34;98249.06;;;2.28;nan
76406;BME280;65234;50.044;19.258;2022-12-07T10:08:59;98250.63;;;2.29;nan
76406;BME280;65234;50.044;19.258;2022-12-07T10:11:26;98249.28;;;2.39;nan
76406;BME280;65234;50.044;19.258;2022-12-07T10:13:52;98249.44;;;2.46;nan
76406;BME280;65234;50.044;19.258;2022-12-07T10:16:43;98241.50;;;2.57;nan
76406;BME280;65234;50.044;19.258;2022-12-07T10:19:23;98242.34;;;2.61;nan
76406;BME280;65234;50.044;19.258;2022-12-07T10:22:01;98230.06;;;2.70;nan
76406;BME280;65234;50.044;19.258;2022-12-07T10:24:26;98231.38;;;2.76;nan
76406;BME280;65234;50.044;19.258;2022-12-07T10:26:54;98231.38;;;2.76;nan
76406;BME280;65234;50.044;19.258;2022-12-07T10:29:22;98219.56;;;2.72;nan
76406;BME280;65234;50.044;19.258;2022-12-07T10:31:54;98221.06;;;2.70;nan
76406;BME280;65234;50.044;19.258;2022-12-07T10:34:23;98215.72;;;2.77;nan
76406;BME280;65234;50.044;19.258;2022-12-07T10:36:49;98218.13;;;2.78;nan
76406;BME280;65234;50.044;19.258;2022-12-07T10:39:18;98208.25;;;2.93;nan
76406;BME280;65234;50.044;19.258;2022-12-07T10:41:54;98200.91;;;2.97;nan
76406;BME280;65234;50.044;19.258;2022-12-07T10:44:21;98201.47;;;3.06;nan
76406;BME280;65234;50.044;19.258;2022-12-07T10:47:00;98199.25;;;3.12;nan
76406;BME280;65234;50.044;19.258;2022-12-07T10:49:55;98196.88;;;3.10;nan
76406;BME280;65234;50.044;19.258;2022-12-07T10:52:43;98200.88;;;3.16;nan
76406;BME280;65234;50.044;19.258;2022-12-07T10:55:20;98193.91;;;3.19;nan
76406;BME280;65234;50.044;19.258;2022-12-07T10:57:56;98189.13;;;3.35;nan
76406;BME280;65234;50.044;19.258;2022-12-07T11:00:28;98188.63;;;3.29;nan
76406;BME280;65234;50.044;19.258;2022-12-07T11:05:52;98184.91;;;3.41;nan
76406;BME280;65234;50.044;19.258;2022-12-07T11:08:24;98186.50;;;3.42;
76406;BME280;65234;50.044;19.258;2022-12-07T11:11:04;98189.19;;;3.39;nan
76406;BME280;65234;50.044;19.258;2022-12-07T11:13:39;98178.59;;;3.37;nan
76406;BME280;65234;50.044;19.258;2022-12-07T11:16:16;98174.53;;;3.27;nan
76406;BME280;65234;50.044;19.258;2022-12-07T11:18:53;98175.78;;;3.33;nan
76406;BME280;65234;50.044;19.258;2022-12-07T11:21:26;98173.50;;;3.36;nan
76406;BME280;65234;50.044;19.258;2022-12-07T11:24:01;98170.94;;;3.23;nan
76406;BME280;65234;50.044;19.258;2022-12-07T11:26:38;98179.25;;;3.30;nan
76406;BME280;65234;50.044;19.258;2022-12-07T11:29:22;98171.69;;;3.24;nan
76406;BME280;65234;50.044;19.258;2022-12-07T11:32:00;98176.41;;;3.23;nan
76406;BME280;65234;50.044;19.258;2022-12-07T11:34:37;98175.53;;;3.19;nan
76406;BME280;65234;50.044;19.258;2022-12-07T11:37:09;98179.19;;;3.27;nan
76406;BME280;65234;50.044;19.258;2022-12-07T11:39:41;98172.19;;;3.29;nan
76406;BME280;65234;50.044;19.258;2022-12-07T11:42:14;98164.03;;;3.33;nan
76406;BME280;65234;50.044;19.258;2022-12-07T11:44:47;98162.84;;;3.30;nan
76406;BME280;65234;50.044;19.258;2022-12-07T11:47:19;98158.22;;;3.35;nan
76406;BME280;65234;50.044;19.258;2022-12-07T11:49:53;98155.03;;;3.32;nan
76406;BME280;65234;50.044;19.258;2022-12-07T11:52:24;98157.91;;;3.40;nan
76406;BME280;65234;50.044;19.258;2022-12-07T11:54:52;98153.59;;;3.39;nan
76406;BME280;65234;50.044;19.258;2022-12-07T11:57:24;98146.13;;;3.36;nan
76406;BME280;65234;50.044;19.258;2022-12-07T11:59:56;98156.84;;;3.48;nan
76406;BME280;65234;50.044;19.258;2022-12-07T12:02:26;98150.91;;;3.42;nan
76406;BME280;65234;50.044;19.258;2022-12-07T12:04:59;98154.25;;;3.32;nan
76406;BME280;65234;50.044;19.258;2022-12-07T12:07:28;98157.06;;;3.36;nan
76406;BME280;65234;50.044;19.258;2022-12-07T12:09:58;98154.34;;;3.36;nan
76406;BME280;65234;50.044;19.258;2022-12-07T12:12:46;98155.19;;;3.40;nan
76406;BME280;65234;50.044;19.258;2022-12-07T12:15:36;98153.53;;;3.35;nan
76406;BME280;65234;50.044;19.258;2022-12-07T12:18:21;98159.66;;;3.28;nan
76406;BME280;65234;50.044;19.258;2022-12-07T12:20:55;98162.66;;;3.43;nan
76406;BME280;65234;50.044;19.258;2022-12-07T12:23:25;98162.22;;;3.41;nan
76406;BME280;65234;50.044;19.258;2022-12-07T12:25:55;98161.88;;;3.42;nan
76406;BME280;65234;50.044;19.258;2022-12-07T12:28:26;98160.28;;;3.41;nan
76406;BME280;65234;50.044;19.258;2022-12-07T12:31:07;98151.22;;;3.37;nan
76406;BME280;65234;50.044;19.258;2022-12-07T12:33:35;98164.09;;;3.37;nan
76406;BME280;65234;50.044;19.258;2022-12-07T12:36:25;98169.97;;;3.35;nan
76406;BME280;65234;50.044;19.258;2022-12-07T12:39:08;98170.75;;;3.36;nan
76406;BME280;65234;50.044;19.258;2022-12-07T12:42:00;98170.75;;;3.36;nan
76406;BME280;65234;50.044;19.258;2022-12-07T12:47:54;98162.09;;;3.56;nan
76406;BME280;65234;50.044;19.258;2022-12-07T12:50:22;98164.31;;;3.47;nan
76406;BME280;65234;50.044;19.258;2022-12-07T12:53:19;98154.34;;;3.36;nan
76406;BME280;65234;50.044;19.258;2022-12-07T12:56:07;98154.00;;;3.41;nan
76406;BME280;65234;50.044;19.258;2022-12-07T12:58:37;98143.50;;;3.43;nan
76406;BME280;65234;50.044;19.258;2022-12-07T13:04:24;98144.22;;;3.40;nan
76406;BME280;65234;50.044;19.258;2022-12-07T13:06:51;98144.22;;;3.40;nan
76406;BME280;65234;50.044;19.258;2022-12-07T13:09:21;98138.03;;;3.43;nan
76406;BME280;65234;50.044;19.258;2022-12-07T13:11:48;98134.53;;;3.46;nan
76406;BME280;65234;50.044;19.258;2022-12-07T13:20:54;98132.34;;;3.32;nan
76406;BME280;65234;50.044;19.258;2022-12-07T13:23:26;98132.28;;;3.28;nan
76406;BME280;65234;50.044;19.258;2022-12-07T13:26:14;98140.50;;;3.28;nan
76406;BME280;65234;50.044;19.258;2022-12-07T13:28:42;98142.66;;;3.39;nan
76406;BME280;65234;50.044;19.258;2022-12-07T13:31:15;98145.63;;;3.30;nan
76406;BME280;65234;50.044;19.258;2022-12-07T13:33:46;98150.84;;;3.39;nan
76406;BME280;65234;50.044;19.258;2022-12-07T13:36:23;98148.06;;;3.35;nan
76406;BME280;65234;50.044;19.258;2022-12-07T13:38:57;98153.47;;;3.31;nan
76406;BME280;65234;50.044;19.258;2022-12-07T13:41:25;98150.31;;;3.29;nan
76406;BME280;65234;50.044;19.258;2022-12-07T13:43:54;98162.78;;;3.27;nan
76406;BME280;65234;50.044;19.258;2022-12-07T13:46:30;98158.00;;;3.24;nan
76406;BME280;65234;50.044;19.258;2022-12-07T13:48:57;98172.50;;;3.24;nan
76406;BME280;65234;50.044;19.258;2022-12-07T13:51:24;98161.88;;;3.19;nan